Time;durP1;ratioP1;P1;durP2;ratioP2;P2;SDS_P1;SDS_P2;PMS_P1;PMS_P2;Temp;Humidity;BMP_temperature;BMP_pressure;BME280_temperature;BME280_humidity;BME280_pressure;Samples;Min_cycle;Max_cycle;Signal;HPM_P1;HPM_P2
2022/10/01 00:01:03;;;;;;;12.20;8.07;;;10.60;99.90;;;;;;4973470;28;20404;-67
2022/10/01 00:03:31;;;;;;;11.73;7.88;;;10.60;99.90;;;;;;4974349;28;20046;-66
2022/10/01 00:06:00;;;;;;;12.90;7.78;;;10.50;99.90;;;;;;4973669;28;20078;-67
2022/10/01 00:08:27;;;;;;;12.38;8.35;;;10.60;99.90;;;;;;4955964;28;20050;-66
2022/10/01 00:10:54;;;;;;;9.77;7.90;;;10.50;99.90;;;;;;4953142;29;20471;-68
2022/10/01 00:13:21;;;;;;;11.05;8.38;;;10.50;99.90;;;;;;4937559;29;20059;-67
2022/10/01 00:15:48;;;;;;;14.63;8.82;;;10.50;99.90;;;;;;4953821;29;20388;-67
2022/10/01 00:18:16;;;;;;;11.32;8.43;;;10.50;99.90;;;;;;4937657;29;20051;-67
2022/10/01 00:20:44;;;;;;;9.50;8.48;;;10.50;99.90;;;;;;4937392;29;20047;-67
2022/10/01 00:23:11;;;;;;;10.60;8.35;;;10.50;99.90;;;;;;4953886;29;20055;-67
2022/10/01 00:25:38;;;;;;;12.02;8.55;;;10.50;99.90;;;;;;4951033;28;20058;-67
2022/10/01 00:28:05;;;;;;;11.38;9.43;;;10.50;99.90;;;;;;4972440;28;20054;-67
2022/10/01 00:30:32;;;;;;;10.30;8.10;;;10.50;99.90;;;;;;4956869;28;20066;-67
2022/10/01 00:32:59;;;;;;;11.85;8.35;;;10.50;99.90;;;;;;4956600;28;20059;-67
2022/10/01 00:35:27;;;;;;;11.82;8.60;;;10.50;99.90;;;;;;4972931;28;20058;-67
2022/10/01 00:37:54;;;;;;;11.82;8.93;;;10.50;99.90;;;;;;4973488;28;20494;-66
2022/10/01 00:40:23;;;;;;;13.85;9.75;;;10.50;99.90;;;;;;4974251;28;20121;-67
2022/10/01 00:42:50;;;;;;;10.57;9.02;;;10.50;99.90;;;;;;4955865;28;20138;-66
2022/10/01 00:45:17;;;;;;;12.63;9.60;;;10.40;99.90;;;;;;4974342;28;20050;-67
2022/10/01 00:47:49;;;;;;;14.10;10.52;;;10.40;99.90;;;;;;4956101;28;20089;-66
2022/10/01 00:50:20;;;;;;;12.10;9.70;;;10.40;99.90;;;;;;4972709;28;20054;-67
2022/10/01 00:52:51;;;;;;;13.40;9.48;;;10.50;99.90;;;;;;4973629;28;20046;-67
2022/10/01 00:55:22;;;;;;;13.63;10.10;;;10.40;99.90;;;;;;4956769;28;20157;-67
2022/10/01 00:57:50;;;;;;;12.25;9.48;;;10.40;99.90;;;;;;4958562;28;20090;-66
2022/10/01 01:00:17;;;;;;;12.68;10.65;;;10.40;99.90;;;;;;4977365;28;20055;-67
2022/10/01 01:02:44;;;;;;;13.85;9.93;;;10.40;99.90;;;;;;4958944;28;20055;-67
2022/10/01 01:05:12;;;;;;;13.85;10.23;;;10.40;99.90;;;;;;4975491;28;20050;-68
2022/10/01 01:07:44;;;;;;;14.65;9.25;;;10.40;99.90;;;;;;4959734;28;20505;-67
2022/10/01 01:10:14;;;;;;;12.05;9.52;;;10.40;99.90;;;;;;4955737;29;20063;-68
2022/10/01 01:12:54;;;;;;;14.93;10.65;;;10.40;99.90;;;;;;4958141;28;20119;-68
2022/10/01 01:15:26;;;;;;;14.27;10.52;;;10.40;99.90;;;;;;4956418;29;20058;-67
2022/10/01 01:18:02;;;;;;;12.65;10.15;;;10.40;99.90;;;;;;4955877;29;20078;-67
2022/10/01 01:20:50;;;;;;;13.50;9.77;;;10.40;99.90;;;;;;4953274;29;20051;-67
2022/10/01 01:23:51;;;;;;;11.75;9.75;;;10.30;99.90;;;;;;4935471;29;20060;-67
2022/10/01 01:26:30;;;;;;;12.57;9.40;;;10.40;99.90;;;;;;4921392;29;20492;-67
2022/10/01 01:29:03;;;;;;;13.13;9.50;;;10.30;99.90;;;;;;4938551;29;20492;-68
2022/10/01 01:31:35;;;;;;;13.10;9.98;;;10.30;99.90;;;;;;4936780;29;20402;-68
2022/10/01 01:34:11;;;;;;;12.65;9.13;;;10.40;99.90;;;;;;4945748;29;20110;-68
2022/10/01 01:36:42;;;;;;;11.85;9.05;;;10.30;99.90;;;;;;4955889;29;20119;-67
2022/10/01 01:39:13;;;;;;;12.40;8.80;;;10.40;99.90;;;;;;4956789;28;20060;-68
2022/10/01 01:41:47;;;;;;;;;;;10.30;99.90;;;;;;4956386;29;20047;-67
2022/10/01 01:44:17;;;;;;;13.75;10.10;;;10.30;99.90;;;;;;4956241;29;19922;-68
2022/10/01 01:46:48;;;;;;;13.23;8.93;;;10.30;99.90;;;;;;4956522;28;20130;-68
2022/10/01 01:49:16;;;;;;;14.70;9.40;;;10.30;99.90;;;;;;4957213;28;20047;-68
2022/10/01 01:51:49;;;;;;;11.48;9.52;;;10.30;99.90;;;;;;4956224;29;20069;-68
2022/10/01 01:54:17;;;;;;;12.65;8.73;;;10.30;99.90;;;;;;4955567;29;20126;-68
2022/10/01 01:56:44;;;;;;;10.32;7.82;;;10.30;99.90;;;;;;4955926;29;20059;-68
2022/10/01 01:59:12;;;;;;;16.42;9.52;;;10.30;99.90;;;;;;4955959;29;20047;-68
2022/10/01 02:01:42;;;;;;;11.23;8.48;;;10.30;99.90;;;;;;4954574;29;20051;-68
2022/10/01 02:04:21;;;;;;;12.43;9.50;;;10.20;99.90;;;;;;4957022;28;20114;-68
2022/10/01 02:07:15;;;;;;;11.07;8.43;;;10.30;99.90;;;;;;4955853;28;20043;-67
2022/10/01 02:09:55;;;;;;;11.15;8.35;;;10.30;99.90;;;;;;4954999;29;20055;-68
2022/10/01 02:12:29;;;;;;;11.60;8.60;;;10.20;99.90;;;;;;4955334;29;20106;-68
2022/10/01 02:15:04;;;;;;;10.38;8.63;;;10.30;99.90;;;;;;4954825;29;20055;-67
2022/10/01 02:17:39;;;;;;;8.80;7.45;;;10.20;99.90;;;;;;4955238;29;20052;-68
2022/10/01 02:20:09;;;;;;;11.63;8.05;;;10.20;99.90;;;;;;4956761;28;20455;-68
2022/10/01 02:22:42;;;;;;;15.88;7.15;;;10.20;99.90;;;;;;4955952;28;20459;-68
2022/10/01 02:25:11;;;;;;;12.98;7.93;;;10.20;99.90;;;;;;4956670;28;20058;-69
2022/10/01 02:27:43;;;;;;;9.85;7.30;;;10.20;99.90;;;;;;4954339;29;20415;-68
2022/10/01 02:30:11;;;;;;;10.18;7.03;;;10.20;99.90;;;;;;4954997;29;20519;-69
2022/10/01 02:32:42;;;;;;;10.68;7.43;;;10.20;99.90;;;;;;4956506;28;20051;-69
2022/10/01 02:35:12;;;;;;;11.13;7.15;;;10.30;99.90;;;;;;4955968;28;20063;-69
2022/10/01 02:37:43;;;;;;;11.15;7.30;;;10.10;99.90;;;;;;4955217;29;20161;-69
2022/10/01 02:40:14;;;;;;;8.38;6.40;;;10.30;99.90;;;;;;4956220;28;20051;-69
2022/10/01 02:42:43;;;;;;;9.77;6.25;;;10.10;99.90;;;;;;4935375;29;20055;-69
2022/10/01 02:45:12;;;;;;;9.10;7.03;;;10.30;99.90;;;;;;4937165;29;20056;-69
2022/10/01 02:47:44;;;;;;;12.18;6.40;;;10.30;99.90;;;;;;4936762;29;20091;-69
2022/10/01 02:50:12;;;;;;;8.85;6.38;;;10.10;99.90;;;;;;4935033;29;20055;-69
2022/10/01 02:52:45;;;;;;;9.55;6.43;;;10.20;99.90;;;;;;4937158;29;20147;-69
2022/10/01 02:55:15;;;;;;;7.15;5.50;;;10.20;99.90;;;;;;4937758;29;20058;-69
2022/10/01 02:57:41;;;;;;;7.88;6.65;;;10.20;99.90;;;;;;4953619;29;20048;-69
2022/10/01 03:00:10;;;;;;;9.85;6.53;;;10.20;99.90;;;;;;4955940;28;20047;-68
2022/10/01 03:02:37;;;;;;;8.95;6.68;;;10.20;99.90;;;;;;4955785;28;20062;-69
2022/10/01 03:05:07;;;;;;;9.32;5.63;;;10.30;99.90;;;;;;4955714;28;20051;-68
2022/10/01 03:07:35;;;;;;;9.07;6.50;;;10.30;99.90;;;;;;4955369;28;20051;-68
2022/10/01 03:10:02;;;;;;;9.05;5.68;;;10.40;99.90;;;;;;4953515;29;20142;-68
2022/10/01 03:12:29;;;;;;;7.20;5.80;;;10.20;99.90;;;;;;4955637;28;20106;-69
2022/10/01 03:14:56;;;;;;;7.38;5.47;;;10.30;99.90;;;;;;4955771;28;20054;-68
2022/10/01 03:17:23;;;;;;;8.88;6.40;;;10.30;99.90;;;;;;4954530;28;20070;-68
2022/10/01 03:19:50;;;;;;;8.93;5.95;;;10.30;99.90;;;;;;4954041;28;20051;-68
2022/10/01 03:22:22;;;;;;;7.55;6.15;;;10.40;99.90;;;;;;4954094;29;20106;-68
2022/10/01 03:24:49;;;;;;;7.90;5.78;;;10.50;99.90;;;;;;4954375;28;20051;-68
2022/10/01 03:27:16;;;;;;;8.00;5.53;;;10.40;99.90;;;;;;4954106;29;20072;-68
2022/10/01 03:29:43;;;;;;;6.50;5.32;;;10.30;99.90;;;;;;4954064;29;20536;-68
2022/10/01 03:32:10;;;;;;;6.45;5.47;;;10.40;99.90;;;;;;4954480;28;20500;-68
2022/10/01 03:34:37;;;;;;;5.60;4.75;;;10.50;99.90;;;;;;4954230;29;20055;-68
2022/10/01 03:37:05;;;;;;;7.15;5.45;;;10.50;99.90;;;;;;4954762;28;20055;-67
2022/10/01 03:39:33;;;;;;;7.28;4.65;;;10.50;99.90;;;;;;4954299;28;20563;-67
2022/10/01 03:42:00;;;;;;;6.25;4.63;;;10.50;99.90;;;;;;4954204;29;20460;-67
2022/10/01 03:44:27;;;;;;;5.10;4.38;;;10.50;99.90;;;;;;4955097;28;20475;-67
2022/10/01 03:46:54;;;;;;;5.40;4.20;;;10.40;99.90;;;;;;4954158;28;20138;-67
2022/10/01 03:49:21;;;;;;;4.60;3.63;;;10.50;99.90;;;;;;4954767;28;20047;-66
2022/10/01 03:51:48;;;;;;;4.70;3.80;;;10.60;99.90;;;;;;4955039;28;20126;-66
2022/10/01 03:54:15;;;;;;;4.70;3.70;;;10.60;99.90;;;;;;4954414;28;20062;-67
2022/10/01 03:56:43;;;;;;;4.90;3.78;;;10.50;99.90;;;;;;4954794;28;20495;-67
2022/10/01 03:59:11;;;;;;;3.75;3.03;;;10.70;99.90;;;;;;4954010;28;20051;-67
2022/10/01 04:01:38;;;;;;;3.28;2.75;;;10.50;99.90;;;;;;4954142;29;20467;-67
2022/10/01 04:04:05;;;;;;;3.83;2.80;;;10.70;99.90;;;;;;4954870;28;20114;-67
2022/10/01 04:06:32;;;;;;;3.35;2.45;;;10.60;99.90;;;;;;4952595;29;20291;-67
2022/10/01 04:08:59;;;;;;;4.05;2.60;;;10.70;99.90;;;;;;4953437;28;20102;-67
2022/10/01 04:11:26;;;;;;;4.13;2.90;;;10.60;99.90;;;;;;4955769;28;20062;-67
2022/10/01 04:13:56;;;;;;;4.18;2.35;;;10.70;99.90;;;;;;4956152;28;20070;-67
2022/10/01 04:16:23;;;;;;;3.57;2.80;;;10.70;99.90;;;;;;4956818;28;20059;-68
2022/10/01 04:18:50;;;;;;;4.68;3.15;;;10.60;99.90;;;;;;4956891;28;20521;-68
2022/10/01 04:21:17;;;;;;;3.47;2.67;;;10.80;99.90;;;;;;4955600;28;20503;-68
2022/10/01 04:23:44;;;;;;;4.00;2.95;;;10.60;99.90;;;;;;4974069;28;20058;-68
2022/10/01 04:26:11;;;;;;;3.28;2.40;;;10.80;99.90;;;;;;4956715;28;20487;-67
2022/10/01 04:28:38;;;;;;;3.28;2.58;;;10.70;99.90;;;;;;4972672;28;20109;-68
2022/10/01 04:31:24;;;;;;;2.83;2.20;;;10.80;99.90;;;;;;4974470;28;20127;-68
2022/10/01 04:33:52;;;;;;;3.47;2.85;;;10.70;99.90;;;;;;4960578;28;20065;-68
2022/10/01 04:36:19;;;;;;;3.45;2.72;;;10.90;99.90;;;;;;4959904;28;20055;-69
2022/10/01 04:38:46;;;;;;;3.17;2.60;;;10.90;99.90;;;;;;4960412;28;20055;-68
2022/10/01 04:41:13;;;;;;;4.05;2.67;;;10.90;99.90;;;;;;4959768;28;20050;-68
2022/10/01 04:43:40;;;;;;;4.70;3.00;;;10.80;99.90;;;;;;4960365;28;20061;-68
2022/10/01 04:46:08;;;;;;;4.97;3.30;;;10.90;99.90;;;;;;4977689;28;20051;-68
2022/10/01 04:48:35;;;;;;;4.43;3.25;;;10.90;99.90;;;;;;4976322;28;20050;-68
2022/10/01 04:51:02;;;;;;;3.97;3.03;;;10.80;99.90;;;;;;4977679;28;20046;-68
2022/10/01 04:53:29;;;;;;;5.03;3.08;;;10.80;99.90;;;;;;4977349;28;20051;-68
2022/10/01 04:55:56;;;;;;;5.88;4.00;;;10.80;99.90;;;;;;4976513;28;20058;-68
2022/10/01 04:58:23;;;;;;;4.25;3.35;;;10.90;99.90;;;;;;4959853;28;20049;-68
2022/10/01 05:00:50;;;;;;;4.50;3.60;;;10.90;99.90;;;;;;4959859;28;20047;-66
2022/10/01 05:03:19;;;;;;;4.75;3.85;;;11.00;99.90;;;;;;4981572;28;20112;-67
2022/10/01 05:05:46;;;;;;;4.60;3.90;;;11.00;99.90;;;;;;4995031;28;20050;-67
2022/10/01 05:08:12;;;;;;;4.45;3.60;;;10.90;99.90;;;;;;4995390;28;20058;-67
2022/10/01 05:10:39;;;;;;;4.22;3.60;;;11.00;99.90;;;;;;4978053;28;20077;-67
2022/10/01 05:13:06;;;;;;;5.55;3.92;;;11.10;99.90;;;;;;4978772;28;20062;-68
2022/10/01 05:15:34;;;;;;;5.18;4.00;;;10.90;99.90;;;;;;4978867;28;20054;-68
2022/10/01 05:18:01;;;;;;;4.60;3.88;;;11.00;99.90;;;;;;4964798;28;20417;-68
2022/10/01 05:20:29;;;;;;;4.13;3.53;;;11.10;99.90;;;;;;4940459;29;20452;-68
2022/10/01 05:22:56;;;;;;;4.90;4.20;;;11.00;99.90;;;;;;4940387;29;20066;-68
2022/10/01 05:25:23;;;;;;;4.80;4.30;;;11.00;99.90;;;;;;4956599;29;20062;-68
2022/10/01 05:27:50;;;;;;;4.65;3.88;;;11.10;99.90;;;;;;4956898;29;20495;-67
2022/10/01 05:30:22;;;;;;;4.63;4.22;;;11.00;99.90;;;;;;4959436;28;20170;-68
2022/10/01 05:32:57;;;;;;;5.55;4.30;;;11.50;99.90;;;;;;4959650;28;20490;-68
2022/10/01 05:35:25;;;;;;;5.03;4.00;;;11.00;99.90;;;;;;4976632;28;20062;-67
2022/10/01 05:37:58;;;;;;;4.55;4.07;;;11.20;99.90;;;;;;4958585;28;20106;-67
2022/10/01 05:40:26;;;;;;;7.53;4.82;;;11.10;99.90;;;;;;4976624;28;20054;-69
2022/10/01 05:42:53;;;;;;;6.38;4.78;;;11.10;99.90;;;;;;4959275;28;20411;-69
2022/10/01 05:45:21;;;;;;;5.28;4.45;;;11.30;99.90;;;;;;4955222;29;20079;-67
2022/10/01 05:47:48;;;;;;;7.47;4.97;;;11.30;99.90;;;;;;4939844;29;20054;-69
2022/10/01 05:50:16;;;;;;;8.10;5.15;;;11.20;99.90;;;;;;4939462;29;20102;-67
2022/10/01 05:52:49;;;;;;;5.93;5.05;;;11.30;99.90;;;;;;4956388;29;20051;-66
2022/10/01 05:55:18;;;;;;;9.95;5.25;;;11.30;99.90;;;;;;4939672;29;20053;-68
2022/10/01 05:57:44;;;;;;;7.30;5.50;;;11.40;99.90;;;;;;4939312;29;20522;-67
2022/10/01 06:00:13;;;;;;;7.22;5.22;;;11.40;99.90;;;;;;4961336;28;20494;-67
2022/10/01 06:02:40;;;;;;;6.93;5.53;;;11.40;99.90;;;;;;4972429;28;20055;-67
2022/10/01 06:05:07;;;;;;;9.38;5.85;;;11.40;99.90;;;;;;4951104;28;20047;-67
2022/10/01 06:34:39;;;;;;;10.88;7.03;;;11.60;99.90;;;;;;4958538;23;20078;-67
2022/10/01 06:37:06;;;;;;;12.35;7.10;;;11.70;99.90;;;;;;4947070;28;20872;-67
2022/10/01 06:39:33;;;;;;;10.18;7.32;;;11.70;99.90;;;;;;4966209;28;20482;-67
2022/10/01 06:41:59;;;;;;;13.27;7.88;;;11.60;99.90;;;;;;4926545;28;20051;-67
2022/10/01 06:44:26;;;;;;;13.02;7.97;;;11.80;99.90;;;;;;4931486;28;20420;-67
2022/10/01 06:46:53;;;;;;;12.50;7.20;;;11.90;99.90;;;;;;4948158;28;20075;-66
2022/10/01 06:49:21;;;;;;;10.05;7.10;;;11.90;99.90;;;;;;4958330;28;20352;-67
2022/10/01 06:54:33;;;;;;;7.88;6.10;;;12.50;99.90;;;;;;4929649;28;20058;-66
2022/10/01 06:57:00;;;;;;;9.55;6.57;;;12.70;99.90;;;;;;4926734;28;20047;-66
2022/10/01 06:59:27;;;;;;;12.75;6.65;;;12.90;99.90;;;;;;4945094;28;20451;-66
2022/10/01 07:01:54;;;;;;;8.20;5.95;;;13.00;99.90;;;;;;4941654;28;20094;-65
2022/10/01 07:04:21;;;;;;;8.02;5.40;;;12.90;99.90;;;;;;4930154;28;20075;-68
2022/10/01 07:06:49;;;;;;;7.45;6.10;;;13.10;99.90;;;;;;4946717;28;20483;-67
2022/10/01 07:09:16;;;;;;;12.65;6.00;;;12.90;99.90;;;;;;4936947;28;20055;-68
2022/10/01 07:11:42;;;;;;;10.63;5.50;;;13.50;99.90;;;;;;4946004;28;20051;-67
2022/10/01 07:14:09;;;;;;;11.95;5.07;;;14.40;99.90;;;;;;4930743;28;20059;-68
2022/10/01 07:16:38;;;;;;;8.27;4.35;;;14.90;99.90;;;;;;4926036;28;20106;-67
2022/10/01 07:19:05;;;;;;;7.07;4.05;;;14.60;99.90;;;;;;4930830;28;20053;-68
2022/10/01 07:21:32;;;;;;;6.20;4.60;;;14.30;99.90;;;;;;4942141;28;20083;-67
2022/10/01 07:24:00;;;;;;;8.45;4.00;;;14.00;99.90;;;;;;4927200;28;20515;-67
2022/10/01 07:26:29;;;;;;;7.13;3.45;;;13.80;99.90;;;;;;4945503;28;20043;-67
2022/10/01 07:28:56;;;;;;;6.60;3.70;;;14.00;99.90;;;;;;4930867;28;20090;-67
2022/10/01 07:31:23;;;;;;;11.13;3.72;;;13.90;99.90;;;;;;4928354;28;20050;-68
2022/10/01 07:33:56;;;;;;;12.95;4.35;;;13.80;99.90;;;;;;4951909;28;20051;-68
2022/10/01 07:36:24;;;;;;;8.68;3.53;;;13.70;99.90;;;;;;4945631;28;20055;-67
2022/10/01 07:38:50;;;;;;;8.98;3.60;;;13.40;99.90;;;;;;4943315;28;20048;-68
2022/10/01 07:41:19;;;;;;;11.30;4.75;;;13.60;99.90;;;;;;4943114;28;20099;-67
2022/10/01 07:43:46;;;;;;;9.55;4.28;;;14.40;99.90;;;;;;4945152;28;20090;-67
2022/10/01 07:46:13;;;;;;;6.10;3.47;;;15.40;99.90;;;;;;4945361;28;20053;-68
2022/10/01 07:48:40;;;;;;;6.82;2.65;;;16.40;99.90;;;;;;4935470;28;20101;-68
2022/10/01 07:51:07;;;;;;;6.93;2.65;;;17.00;99.90;;;;;;4954903;28;20062;-67
2022/10/01 07:53:34;;;;;;;9.20;2.95;;;17.70;99.90;;;;;;4929823;28;20055;-67
2022/10/01 07:56:01;;;;;;;5.38;1.77;;;18.30;99.90;;;;;;4929386;28;20063;-67
2022/10/01 07:58:29;;;;;;;5.80;2.05;;;18.60;99.90;;;;;;4945898;28;20072;-68
2022/10/01 08:00:57;;;;;;;7.00;2.10;;;18.90;99.90;;;;;;4945646;28;20047;-67
2022/10/01 08:03:25;;;;;;;6.25;2.33;;;19.20;99.90;;;;;;4955908;28;20399;-67
2022/10/01 08:05:53;;;;;;;7.20;1.90;;;19.40;99.90;;;;;;4928253;28;20051;-67
2022/10/01 08:08:20;;;;;;;7.75;1.70;;;19.60;99.90;;;;;;4953688;28;20050;-67
2022/10/01 08:10:48;;;;;;;4.93;1.83;;;19.90;99.90;;;;;;4935153;28;20233;-67
2022/10/01 08:13:17;;;;;;;9.35;2.05;;;20.20;99.90;;;;;;4929926;28;20419;-68
2022/10/01 08:15:48;;;;;;;7.15;2.22;;;20.50;99.90;;;;;;4948732;28;20187;-67
2022/10/01 08:18:15;;;;;;;9.30;2.28;;;20.30;99.90;;;;;;4927201;28;20067;-67
2022/10/01 08:20:43;;;;;;;6.88;1.83;;;20.60;99.90;;;;;;4928253;28;20478;-68
2022/10/01 08:23:13;;;;;;;7.13;1.85;;;20.70;99.90;;;;;;4929172;28;20048;-67
2022/10/01 08:25:40;;;;;;;5.90;2.05;;;20.60;99.90;;;;;;4930289;28;20043;-68
2022/10/01 08:28:08;;;;;;;9.75;2.13;;;20.60;99.90;;;;;;4930763;28;20709;-68
2022/10/01 08:30:37;;;;;;;8.70;1.98;;;20.90;99.90;;;;;;4947643;28;20044;-68
2022/10/01 08:33:05;;;;;;;8.43;2.10;;;21.00;99.90;;;;;;4948807;28;20043;-68
2022/10/01 08:35:32;;;;;;;5.45;1.90;;;21.10;99.90;;;;;;4930391;28;20455;-68
2022/10/01 08:38:01;;;;;;;4.43;1.48;;;20.60;99.90;;;;;;4934113;28;20407;-68
2022/10/01 08:40:29;;;;;;;9.45;2.35;;;21.00;99.90;;;;;;4945749;28;20050;-68
2022/10/01 08:42:59;;;;;;;6.43;1.60;;;21.50;99.90;;;;;;4942521;28;20110;-67
2022/10/01 08:45:28;;;;;;;7.50;1.80;;;21.20;99.90;;;;;;4933409;28;20130;-67
2022/10/01 08:48:05;;;;;;;7.55;1.90;;;21.00;99.90;;;;;;4928579;28;20060;-67
2022/10/01 08:50:40;;;;;;;10.32;2.15;;;20.20;99.90;;;;;;4930138;28;20119;-67
2022/10/01 08:53:14;;;;;;;12.65;2.42;;;19.40;99.90;;;;;;4944309;28;20453;-67
2022/10/01 08:55:41;;;;;;;5.28;1.92;;;19.80;99.90;;;;;;4928444;28;20047;-67
2022/10/01 08:58:14;;;;;;;7.65;2.60;;;20.30;99.90;;;;;;4946860;28;20399;-68
2022/10/01 09:00:46;;;;;;;11.45;2.85;;;20.00;99.90;;;;;;4948811;28;20043;-67
2022/10/01 09:03:15;;;;;;;6.70;2.20;;;19.70;99.90;;;;;;4926239;28;20055;-67
2022/10/01 09:05:55;;;;;;;7.55;2.10;;;19.50;99.90;;;;;;4946161;28;20055;-67
2022/10/01 09:08:43;;;;;;;7.50;2.60;;;19.70;99.90;;;;;;4946517;28;20047;-67
2022/10/01 09:11:22;;;;;;;6.18;1.73;;;20.40;99.90;;;;;;4929940;28;20501;-67
2022/10/01 09:14:11;;;;;;;8.93;2.87;;;21.00;99.90;;;;;;4933315;28;20411;-66
2022/10/01 09:16:47;;;;;;;7.75;3.08;;;21.60;99.90;;;;;;4946055;28;20047;-67
2022/10/01 09:19:30;;;;;;;8.52;2.28;;;22.40;99.90;;;;;;4936187;28;20055;-68
2022/10/01 09:22:02;;;;;;;6.10;1.80;;;22.90;99.90;;;;;;4936875;28;20055;-68
2022/10/01 09:24:40;;;;;;;13.70;2.28;;;23.70;99.90;;;;;;4950548;28;20153;-67
2022/10/01 09:27:13;;;;;;;9.43;2.25;;;24.70;99.90;;;;;;4931617;28;20051;-68
2022/10/01 09:29:45;;;;;;;7.45;2.45;;;25.20;99.90;;;;;;4953451;28;20124;-67
2022/10/01 09:32:17;;;;;;;7.15;2.22;;;25.10;99.90;;;;;;4932763;28;20067;-68
2022/10/01 09:34:45;;;;;;;7.85;2.33;;;25.10;99.90;;;;;;4934067;28;20107;-68
2022/10/01 09:37:27;;;;;;;8.80;2.05;;;24.80;99.90;;;;;;4950309;28;20543;-67
2022/10/01 09:40:07;;;;;;;8.25;1.92;;;24.50;99.90;;;;;;4934889;28;20479;-68
2022/10/01 09:42:33;;;;;;;7.03;1.90;;;24.00;99.90;;;;;;4933401;28;20115;-68
2022/10/01 09:45:01;;;;;;;4.30;1.20;;;23.30;99.90;;;;;;4936758;28;20294;-68
2022/10/01 09:47:28;;;;;;;3.13;1.25;;;23.30;99.90;;;;;;4936625;28;20117;-68
2022/10/01 09:49:58;;;;;;;4.05;1.25;;;23.30;97.20;;;;;;4936168;28;20042;-68
2022/10/01 09:52:33;;;;;;;5.15;1.40;;;22.70;99.20;;;;;;4932672;28;20047;-68
2022/10/01 09:55:04;;;;;;;5.20;1.30;;;21.80;99.10;;;;;;4950783;28;20047;-68
2022/10/01 09:57:34;;;;;;;5.40;1.77;;;20.80;99.90;;;;;;4950427;28;20385;-67
2022/10/01 10:00:08;;;;;;;6.78;2.40;;;19.70;99.90;;;;;;4932063;28;20403;-67
2022/10/01 10:02:40;;;;;;;5.43;1.58;;;18.50;99.90;;;;;;4940824;28;20066;-68
2022/10/01 10:05:09;;;;;;;5.07;2.10;;;17.80;99.90;;;;;;4919393;29;20055;-66
2022/10/01 10:07:38;;;;;;;7.15;1.60;;;17.20;99.90;;;;;;4936877;29;20056;-67
2022/10/01 10:10:11;;;;;;;4.80;1.30;;;16.50;99.90;;;;;;4938117;29;20052;-67
2022/10/01 10:12:38;;;;;;;8.15;2.25;;;16.20;99.90;;;;;;4919672;29;20055;-67
2022/10/01 10:15:08;;;;;;;5.35;1.50;;;15.90;99.90;;;;;;4919433;29;20480;-67
2022/10/01 10:17:36;;;;;;;10.43;2.10;;;15.50;99.90;;;;;;4922888;29;20134;-67
2022/10/01 10:20:16;;;;;;;8.60;2.00;;;15.20;99.90;;;;;;4935875;29;20376;-73
2022/10/01 10:22:44;;;;;;;7.45;2.13;;;14.90;99.90;;;;;;4938358;29;20710;-67
2022/10/01 10:25:16;;;;;;;9.35;2.00;;;14.80;99.90;;;;;;4923744;28;20107;-67
2022/10/01 10:27:53;;;;;;;6.18;1.80;;;14.50;99.90;;;;;;4948281;29;20086;-66
2022/10/01 10:30:23;;;;;;;10.52;2.70;;;14.40;99.90;;;;;;4942717;28;20495;-67
2022/10/01 10:32:50;;;;;;;6.68;2.10;;;14.20;99.90;;;;;;4930510;29;20537;-68
2022/10/01 10:35:20;;;;;;;6.28;1.90;;;14.10;99.90;;;;;;4937361;28;20071;-67
2022/10/01 10:37:51;;;;;;;5.47;1.70;;;14.00;99.90;;;;;;4938597;29;20043;-68
2022/10/01 10:40:20;;;;;;;4.25;1.20;;;14.10;99.90;;;;;;4920179;29;20052;-68
2022/10/01 10:42:49;;;;;;;3.85;1.38;;;14.30;99.90;;;;;;4954203;29;20502;-68
2022/10/01 10:45:19;;;;;;;3.50;1.35;;;14.40;99.90;;;;;;4946095;29;20583;-69
2022/10/01 10:47:48;;;;;;;3.05;1.08;;;14.50;99.90;;;;;;4917730;29;20091;-69
2022/10/01 10:50:30;;;;;;;2.30;0.97;;;14.50;99.90;;;;;;4948820;29;20102;-69
2022/10/01 10:52:58;;;;;;;5.05;1.30;;;14.50;99.90;;;;;;4934333;29;20134;-69
2022/10/01 10:55:29;;;;;;;5.22;1.10;;;14.40;99.90;;;;;;4935481;29;20051;-69
2022/10/01 10:57:55;;;;;;;5.30;1.33;;;14.40;99.90;;;;;;4946942;29;20047;-67
2022/10/01 11:00:24;;;;;;;3.03;1.08;;;14.60;99.90;;;;;;4929989;29;20043;-68
2022/10/01 11:02:55;;;;;;;6.57;1.80;;;14.60;99.90;;;;;;4935546;29;20082;-67
2022/10/01 11:05:24;;;;;;;5.57;1.58;;;14.60;99.90;;;;;;4918921;29;20052;-67
2022/10/01 11:07:54;;;;;;;5.47;1.40;;;14.70;99.90;;;;;;4930874;29;20051;-67
2022/10/01 11:10:34;;;;;;;5.60;1.20;;;14.70;99.90;;;;;;4924717;29;20487;-67
2022/10/01 11:13:26;;;;;;;4.25;1.30;;;14.60;99.90;;;;;;4935850;29;20407;-68
2022/10/01 11:16:15;;;;;;;5.13;1.98;;;14.70;99.90;;;;;;4917607;29;20177;-66
2022/10/01 11:18:54;;;;;;;4.97;1.55;;;14.90;99.90;;;;;;4933124;29;20051;-68
2022/10/01 11:21:41;;;;;;;5.50;1.67;;;15.70;99.90;;;;;;4922932;29;20483;-67
2022/10/01 11:24:37;;;;;;;5.10;1.48;;;16.60;99.90;;;;;;4934301;29;20058;-67
2022/10/01 11:27:12;;;;;;;9.05;1.58;;;17.40;99.90;;;;;;4919908;29;20063;-68
2022/10/01 11:29:51;;;;;;;4.70;1.42;;;19.00;99.90;;;;;;4916767;29;20052;-67
2022/10/01 11:32:24;;;;;;;3.10;1.17;;;20.60;99.90;;;;;;4934972;29;20083;-67
2022/10/01 11:35:18;;;;;;;4.22;1.30;;;21.60;99.90;;;;;;4928664;29;20066;-68
2022/10/01 11:37:58;;;;;;;4.22;1.42;;;21.50;99.90;;;;;;4916797;29;20055;-68
2022/10/01 11:40:28;;;;;;;;;;;21.50;99.90;;;;;;4917443;29;20502;-68
2022/10/01 11:43:02;;;;;;;5.63;1.58;;;20.80;99.90;;;;;;4929545;29;19931;-68
2022/10/01 11:45:35;;;;;;;6.40;1.88;;;20.80;99.90;;;;;;4935062;29;20051;-68
2022/10/01 11:48:06;;;;;;;3.90;1.50;;;21.20;99.90;;;;;;4921048;29;20079;-69
2022/10/01 11:50:37;;;;;;;5.32;1.73;;;21.50;99.90;;;;;;4946204;29;20055;-68
2022/10/01 11:53:09;;;;;;;9.57;1.77;;;21.10;99.90;;;;;;4925210;29;20051;-68
2022/10/01 11:58:51;;;;;;;8.45;2.35;;;19.80;99.90;;;;;;4938289;29;20051;-68
2022/10/01 12:01:27;;;;;;;7.30;2.05;;;19.50;99.90;;;;;;4917521;29;20052;-68
2022/10/01 12:04:24;;;;;;;7.00;2.30;;;19.10;99.90;;;;;;4927735;28;20069;-68
2022/10/01 12:06:57;;;;;;;7.03;2.15;;;19.10;99.90;;;;;;4942100;29;20055;-68
2022/10/01 12:09:29;;;;;;;11.38;2.25;;;19.00;99.90;;;;;;4931274;29;20055;-68
2022/10/01 12:12:00;;;;;;;10.40;2.17;;;18.80;99.90;;;;;;4936658;29;20055;-68
2022/10/01 12:14:35;;;;;;;6.63;1.90;;;18.70;99.90;;;;;;4917242;29;20139;-68
2022/10/01 12:17:13;;;;;;;12.13;3.15;;;18.30;99.90;;;;;;4929365;29;20491;-67
2022/10/01 12:19:45;;;;;;;6.13;1.88;;;18.10;99.90;;;;;;4944155;29;20095;-67
2022/10/01 12:22:19;;;;;;;7.22;2.15;;;18.40;99.90;;;;;;4936304;29;20047;-68
2022/10/01 12:24:48;;;;;;;13.60;2.75;;;18.70;99.90;;;;;;4918481;29;20056;-68
2022/10/01 12:27:35;;;;;;;8.50;2.22;;;19.00;99.90;;;;;;4917813;29;20511;-68
2022/10/01 12:30:08;;;;;;;9.30;2.03;;;18.90;99.90;;;;;;4935801;29;20061;-68
2022/10/01 12:32:47;;;;;;;8.88;2.03;;;18.90;99.90;;;;;;4935001;29;20427;-67
2022/10/01 12:35:34;;;;;;;5.68;1.92;;;18.80;99.90;;;;;;4918460;29;20071;-67
2022/10/01 12:38:12;;;;;;;7.70;2.25;;;19.00;99.90;;;;;;4918215;29;20178;-67
2022/10/01 12:40:46;;;;;;;6.90;2.03;;;20.20;99.90;;;;;;4917586;29;20048;-68
2022/10/01 12:43:46;;;;;;;7.70;1.90;;;21.40;99.90;;;;;;4918869;29;20506;-68
2022/10/01 12:46:24;;;;;;;6.45;1.60;;;22.70;99.90;;;;;;4918451;29;20055;-67
2022/10/01 12:48:59;;;;;;;11.10;2.38;;;22.30;99.90;;;;;;4934977;29;20452;-67
2022/10/01 12:51:41;;;;;;;6.15;1.90;;;21.90;99.90;;;;;;4918307;29;20415;-67
2022/10/01 12:54:30;;;;;;;9.60;2.15;;;21.10;99.90;;;;;;4938289;29;20423;-68
2022/10/01 12:57:05;;;;;;;10.13;2.03;;;20.20;99.90;;;;;;4922475;29;20134;-68
2022/10/01 12:59:50;;;;;;;4.85;1.48;;;19.20;99.90;;;;;;4921782;29;20060;-68
2022/10/01 13:02:47;;;;;;;5.07;1.60;;;18.50;99.90;;;;;;4921613;29;20515;-67
2022/10/01 13:05:23;;;;;;;5.28;1.63;;;18.00;99.90;;;;;;4912507;29;20448;-68
2022/10/01 13:08:09;;;;;;;4.15;1.52;;;17.40;99.90;;;;;;4921300;29;20126;-68
2022/10/01 13:10:51;;;;;;;9.07;2.05;;;16.60;99.90;;;;;;4921760;29;20048;-67
2022/10/01 13:13:22;;;;;;;5.43;1.48;;;16.00;99.90;;;;;;4938987;29;20103;-68
2022/10/01 13:15:54;;;;;;;5.80;1.80;;;15.50;99.90;;;;;;4920872;29;20051;-68
2022/10/01 13:18:34;;;;;;;8.10;1.45;;;15.30;99.90;;;;;;4938598;29;20056;-67
2022/10/01 13:21:05;;;;;;;;;;;15.10;99.90;;;;;;4938694;29;20083;-67
2022/10/01 13:23:40;;;;;;;7.57;1.90;;;15.60;99.90;;;;;;4921298;29;19923;-67
2022/10/01 13:26:14;;;;;;;9.52;1.90;;;16.10;99.90;;;;;;4921611;29;20059;-68
2022/10/01 13:28:56;;;;;;;5.28;2.08;;;17.00;99.90;;;;;;4953292;29;20154;-68
2022/10/01 13:31:36;;;;;;;5.30;1.67;;;18.10;99.90;;;;;;4931881;29;20501;-68
2022/10/01 13:34:31;;;;;;;7.15;1.63;;;18.20;99.90;;;;;;4937308;29;20106;-67
2022/10/01 13:37:10;;;;;;;5.88;3.08;;;17.70;99.90;;;;;;4939120;29;20050;-67
2022/10/01 13:39:40;;;;;;;8.20;3.92;;;17.20;99.90;;;;;;4957132;29;20459;-67